createdAt,value
2018-01-06T00:02:08.460Z,4.60
2018-01-06T00:04:34.771Z,4.60
2018-01-06T00:07:01.802Z,4.60
2018-01-06T00:09:28.054Z,4.60
2018-01-06T00:11:54.489Z,4.60
2018-01-06T00:14:20.805Z,4.60
2018-01-06T00:16:47.091Z,4.60
2018-01-06T00:19:13.370Z,4.60
2018-01-06T00:21:40.387Z,4.50
2018-01-06T00:24:06.687Z,4.60
2018-01-06T00:26:33.003Z,4.50
2018-01-06T00:28:59.274Z,4.50
2018-01-06T00:31:25.626Z,4.50
2018-01-06T00:33:51.923Z,4.50
2018-01-06T00:36:25.205Z,4.50
2018-01-06T00:38:51.480Z,4.50
2018-01-06T00:41:18.501Z,4.70
2018-01-06T00:43:44.770Z,4.70
2018-01-06T00:46:11.762Z,4.80
2018-01-06T00:48:38.021Z,4.80
2018-01-06T00:51:04.268Z,4.90
2018-01-06T00:53:31.270Z,5.00
2018-01-06T00:55:57.585Z,4.90
2018-01-06T00:58:23.893Z,5.00
2018-01-06T01:00:50.145Z,5.00
2018-01-06T01:03:16.383Z,5.00
2018-01-06T01:05:42.670Z,5.00
2018-01-06T01:08:09.712Z,5.00
2018-01-06T01:10:36.814Z,5.00
2018-01-06T01:13:03.830Z,5.00
2018-01-06T01:15:30.057Z,5.00
2018-01-06T01:17:56.328Z,5.00
2018-01-06T01:20:22.599Z,5.00
2018-01-06T01:22:49.607Z,5.00
2018-01-06T01:25:15.871Z,5.00
2018-01-06T01:27:42.136Z,5.00
2018-01-06T01:30:08.401Z,5.00
2018-01-06T01:32:34.700Z,5.00
2018-01-06T01:35:01.093Z,5.00
2018-01-06T01:37:27.576Z,4.90
2018-01-06T01:39:53.822Z,4.90
2018-01-06T01:42:20.099Z,5.00
2018-01-06T01:44:46.347Z,5.00
2018-01-06T01:47:12.610Z,5.00
2018-01-06T01:49:39.628Z,5.10
2018-01-06T01:52:05.961Z,5.00
2018-01-06T01:54:32.282Z,5.10
2018-01-06T01:56:58.524Z,5.10
2018-01-06T01:59:24.768Z,5.10
2018-01-06T02:01:51.076Z,5.10
2018-01-06T02:04:17.355Z,5.10
2018-01-06T02:06:43.647Z,5.10
2018-01-06T02:09:09.954Z,5.10
2018-01-06T02:11:36.226Z,5.10
2018-01-06T02:14:03.247Z,5.10
2018-01-06T02:16:29.558Z,5.10
2018-01-06T02:18:55.819Z,5.10
2018-01-06T02:21:22.192Z,5.10
2018-01-06T02:23:48.472Z,5.20
2018-01-06T02:26:14.947Z,5.20
2018-01-06T02:28:41.251Z,5.10
2018-01-06T02:31:08.305Z,5.10
2018-01-06T02:33:35.422Z,5.10
2018-01-06T02:36:01.715Z,5.00
2018-01-06T02:38:27.999Z,5.10
2018-01-06T02:40:55.046Z,5.10
2018-01-06T02:43:21.331Z,5.10
2018-01-06T02:45:47.588Z,5.10
2018-01-06T02:48:13.876Z,5.10
2018-01-06T02:50:40.146Z,5.00
2018-01-06T02:53:06.487Z,4.90
2018-01-06T02:55:32.743Z,4.90
2018-01-06T02:57:59.017Z,4.90
2018-01-06T03:00:25.286Z,4.90
2018-01-06T03:02:52.339Z,5.10
2018-01-06T03:05:19.392Z,5.10
2018-01-06T03:07:46.411Z,5.20
2018-01-06T03:10:12.683Z,5.20
2018-01-06T03:12:38.984Z,5.10
2018-01-06T03:15:05.989Z,5.10
2018-01-06T03:17:32.345Z,5.10
2018-01-06T03:19:58.595Z,5.10
2018-01-06T03:22:26.496Z,5.10
2018-01-06T03:24:52.853Z,5.00
2018-01-06T03:27:19.158Z,5.00
2018-01-06T03:29:45.471Z,5.00
2018-01-06T03:32:11.761Z,4.90
2018-01-06T03:34:38.074Z,4.90
2018-01-06T03:37:04.344Z,4.90
2018-01-06T03:39:30.652Z,4.90
2018-01-06T03:41:57.036Z,4.90
2018-01-06T03:44:23.380Z,4.80
2018-01-06T03:46:49.690Z,4.80
2018-01-06T03:49:16.005Z,4.70
2018-01-06T03:51:42.298Z,4.80
2018-01-06T03:54:08.582Z,4.80
2018-01-06T03:56:35.690Z,4.80
2018-01-06T03:59:02.716Z,4.80
2018-01-06T04:01:28.984Z,4.80
2018-01-06T04:04:03.137Z,4.90
2018-01-06T04:06:29.402Z,4.80
2018-01-06T04:08:56.597Z,4.90
2018-01-06T04:11:22.934Z,4.90
2018-01-06T04:13:49.249Z,4.90
2018-01-06T04:16:15.528Z,4.90
2018-01-06T04:18:41.812Z,4.90
2018-01-06T04:21:08.066Z,4.80
2018-01-06T04:23:34.345Z,4.80
2018-01-06T04:26:00.617Z,4.80
2018-01-06T04:28:26.894Z,4.90
2018-01-06T04:30:53.225Z,4.80
2018-01-06T04:33:20.284Z,4.80
2018-01-06T04:35:46.561Z,4.80
2018-01-06T04:38:12.856Z,4.80
2018-01-06T04:40:39.133Z,4.70
2018-01-06T04:43:05.400Z,4.70
2018-01-06T04:45:31.705Z,4.60
2018-01-06T04:47:58.762Z,4.50
2018-01-06T04:50:25.123Z,4.50
2018-01-06T04:52:51.416Z,4.50
2018-01-06T04:55:17.669Z,4.40
2018-01-06T04:57:44.686Z,4.20
2018-01-06T05:00:10.910Z,4.20
2018-01-06T05:02:37.194Z,4.20
2018-01-06T05:05:03.455Z,4.20
2018-01-06T05:07:29.711Z,4.10
2018-01-06T05:09:56.952Z,4.20
2018-01-06T05:12:23.226Z,4.20
2018-01-06T05:14:49.537Z,4.20
2018-01-06T05:17:16.537Z,4.10
2018-01-06T05:19:42.858Z,4.10
2018-01-06T05:22:09.114Z,4.10
2018-01-06T05:24:35.423Z,4.10
2018-01-06T05:27:06.720Z,4.10
2018-01-06T05:29:33.232Z,4.00
2018-01-06T05:32:00.303Z,4.10
2018-01-06T05:34:26.562Z,4.00
2018-01-06T05:36:52.952Z,4.00
2018-01-06T05:39:19.294Z,4.00
2018-01-06T05:41:45.565Z,4.00
2018-01-06T05:44:11.970Z,4.00
2018-01-06T05:46:38.295Z,4.00
2018-01-06T05:49:04.557Z,4.00
2018-01-06T05:51:30.836Z,3.90
2018-01-06T05:53:57.815Z,3.90
2018-01-06T05:56:24.073Z,3.80
2018-01-06T05:58:50.438Z,3.80
2018-01-06T06:01:17.501Z,3.80
2018-01-06T06:03:43.783Z,3.80
2018-01-06T06:06:10.075Z,3.80
2018-01-06T06:08:36.325Z,3.80
2018-01-06T06:11:02.549Z,3.70
2018-01-06T06:13:28.904Z,3.70
2018-01-06T06:15:55.974Z,3.80
2018-01-06T06:18:22.994Z,3.70
2018-01-06T06:20:49.318Z,3.70
2018-01-06T06:23:15.580Z,3.70
2018-01-06T06:25:42.889Z,3.70
2018-01-06T06:28:09.191Z,3.70
2018-01-06T06:30:35.490Z,3.70
2018-01-06T06:33:02.491Z,3.70
2018-01-06T06:35:28.774Z,3.70
2018-01-06T06:37:56.058Z,3.70
2018-01-06T06:40:22.397Z,3.70
2018-01-06T06:42:48.660Z,3.70
2018-01-06T06:45:14.918Z,3.70
2018-01-06T06:47:41.887Z,3.80
2018-01-06T06:50:08.338Z,3.80
2018-01-06T06:52:34.657Z,3.90
2018-01-06T06:55:01.714Z,4.10
2018-01-06T06:57:28.015Z,4.10
2018-01-06T06:59:54.282Z,4.20
2018-01-06T07:02:20.800Z,4.30
2018-01-06T07:04:47.851Z,4.40
2018-01-06T07:07:14.353Z,4.40
2018-01-06T07:09:41.572Z,4.50
2018-01-06T07:12:08.620Z,4.50
2018-01-06T07:14:35.840Z,4.50
2018-01-06T07:17:02.190Z,4.50
2018-01-06T07:19:28.530Z,4.50
2018-01-06T07:21:55.620Z,4.50
2018-01-06T07:24:21.903Z,4.50
2018-01-06T07:26:48.881Z,4.60
2018-01-06T07:29:15.131Z,4.60
2018-01-06T07:31:41.596Z,4.60
2018-01-06T07:34:07.878Z,4.60
2018-01-06T07:36:34.359Z,4.50
2018-01-06T07:39:01.482Z,4.50
2018-01-06T07:41:27.862Z,4.50
2018-01-06T07:43:54.364Z,4.60
2018-01-06T07:46:21.447Z,4.50
2018-01-06T07:48:48.351Z,4.50
2018-01-06T07:51:14.779Z,4.50
2018-01-06T07:53:41.020Z,4.50
2018-01-06T07:56:07.519Z,4.50
2018-01-06T07:58:35.404Z,4.50
2018-01-06T08:01:01.769Z,4.50
2018-01-06T08:03:29.001Z,4.60
2018-01-06T08:05:55.256Z,4.60
2018-01-06T08:08:22.575Z,4.70
2018-01-06T08:10:49.735Z,4.70
2018-01-06T08:13:16.220Z,4.70
2018-01-06T08:15:42.462Z,4.70
2018-01-06T08:18:08.869Z,4.80
2018-01-06T08:20:35.199Z,4.80
2018-01-06T08:23:01.595Z,4.80
2018-01-06T08:25:28.694Z,4.80
2018-01-06T08:27:54.971Z,4.80
2018-01-06T08:30:21.264Z,4.80
2018-01-06T08:32:47.596Z,4.80
2018-01-06T08:35:13.885Z,4.80
2018-01-06T08:37:41.083Z,4.80
2018-01-06T08:40:07.437Z,4.90
2018-01-06T08:42:33.680Z,4.90
2018-01-06T08:45:01.035Z,4.90
2018-01-06T08:47:27.346Z,4.90
2018-01-06T08:49:53.586Z,4.90
2018-01-06T08:52:20.173Z,4.90
2018-01-06T08:54:46.506Z,5.00
2018-01-06T08:57:12.903Z,5.00
2018-01-06T08:59:39.884Z,5.10
2018-01-06T09:02:06.346Z,5.10
2018-01-06T09:04:32.594Z,5.20
2018-01-06T09:06:58.849Z,5.20
2018-01-06T09:09:25.161Z,5.30
2018-01-06T09:11:52.252Z,5.40
2018-01-06T09:14:19.455Z,5.30
2018-01-06T09:16:46.471Z,5.40
2018-01-06T09:19:12.752Z,5.30
2018-01-06T09:21:39.026Z,5.40
2018-01-06T09:24:05.454Z,5.40
2018-01-06T09:26:31.878Z,5.50
2018-01-06T09:28:58.274Z,5.50
2018-01-06T09:31:25.273Z,5.60
2018-01-06T09:33:51.549Z,5.60
2018-01-06T09:36:17.818Z,5.70
2018-01-06T09:38:44.087Z,5.70
2018-01-06T09:41:11.131Z,5.80
2018-01-06T09:43:37.524Z,5.80
2018-01-06T09:46:03.842Z,5.80
2018-01-06T09:48:30.247Z,5.80
2018-01-06T09:50:57.217Z,5.80
2018-01-06T09:53:23.546Z,5.80
2018-01-06T09:55:49.813Z,5.90
2018-01-06T09:58:16.133Z,6.00
2018-01-06T10:00:42.539Z,6.00
2018-01-06T10:03:09.003Z,6.10
2018-01-06T10:05:36.395Z,6.10
2018-01-06T10:08:03.018Z,6.10
2018-01-06T10:10:30.455Z,6.20
2018-01-06T10:12:57.702Z,6.20
2018-01-06T10:15:24.050Z,6.20
2018-01-06T10:17:50.354Z,6.20
2018-01-06T10:20:16.833Z,6.20
2018-01-06T10:22:43.220Z,6.20
2018-01-06T10:25:10.302Z,6.20
2018-01-06T10:27:36.791Z,6.30
2018-01-06T10:30:03.084Z,6.30
2018-01-06T10:32:29.340Z,6.40
2018-01-06T10:34:55.738Z,6.50
2018-01-06T10:37:22.147Z,6.60
2018-01-06T10:39:49.329Z,6.80
2018-01-06T10:42:15.874Z,6.80
2018-01-06T10:44:43.177Z,7.00
2018-01-06T10:47:09.886Z,7.00
2018-01-06T10:49:36.617Z,7.10
2018-01-06T10:52:03.417Z,7.10
2018-01-06T10:54:30.482Z,7.40
2018-01-06T10:56:58.112Z,7.40
2018-01-06T10:59:24.394Z,7.80
2018-01-06T11:01:56.960Z,8.00
2018-01-06T11:04:23.621Z,8.10
2018-01-06T11:06:50.805Z,8.30
2018-01-06T11:09:17.025Z,8.50
2018-01-06T11:11:43.786Z,8.80
2018-01-06T11:14:10.393Z,9.20
2018-01-06T11:16:37.362Z,9.20
2018-01-06T11:19:04.454Z,8.70
2018-01-06T11:21:30.783Z,8.60
2018-01-06T11:23:57.034Z,8.70
2018-01-06T11:26:23.342Z,8.50
2018-01-06T11:28:49.623Z,8.40
2018-01-06T11:31:15.970Z,8.10
2018-01-06T11:33:42.978Z,7.90
2018-01-06T11:36:09.325Z,7.80
2018-01-06T11:38:35.629Z,7.80
2018-01-06T11:41:02.719Z,7.70
2018-01-06T11:43:30.355Z,7.50
2018-01-06T11:45:57.783Z,7.50
2018-01-06T11:48:29.076Z,7.50
2018-01-06T11:50:56.290Z,7.50
2018-01-06T11:53:23.228Z,7.40
2018-01-06T11:55:49.704Z,7.40
2018-01-06T11:58:16.631Z,7.40
2018-01-06T12:00:42.950Z,7.40
2018-01-06T12:03:09.293Z,7.30
2018-01-06T12:05:35.795Z,7.30
2018-01-06T12:08:02.654Z,7.40
2018-01-06T12:10:30.235Z,7.40
2018-01-06T12:12:56.573Z,7.40
2018-01-06T12:15:23.651Z,7.40
2018-01-06T12:17:49.959Z,7.40
2018-01-06T12:20:16.304Z,7.50
2018-01-06T12:22:42.723Z,7.60
2018-01-06T12:25:09.049Z,7.50
2018-01-06T12:27:37.148Z,7.60
2018-01-06T12:30:04.120Z,7.60
2018-01-06T12:32:31.323Z,7.60
2018-01-06T12:34:57.717Z,7.60
2018-01-06T12:37:24.948Z,7.70
2018-01-06T12:39:52.718Z,7.70
2018-01-06T12:42:18.966Z,7.70
2018-01-06T12:44:45.260Z,7.70
2018-01-06T12:47:11.509Z,7.70
2018-01-06T12:49:37.898Z,7.80
2018-01-06T12:52:04.173Z,7.70
2018-01-06T12:54:38.369Z,7.70
2018-01-06T12:57:04.916Z,7.70
2018-01-06T12:59:31.219Z,7.70
2018-01-06T13:01:57.568Z,7.60
2018-01-06T13:04:23.973Z,7.70
2018-01-06T13:06:50.418Z,7.70
2018-01-06T13:09:16.858Z,7.60
2018-01-06T13:11:43.210Z,7.60
2018-01-06T13:14:09.512Z,7.50
2018-01-06T13:16:35.824Z,7.50
2018-01-06T13:19:02.093Z,7.50
2018-01-06T13:21:28.381Z,7.50
2018-01-06T13:23:55.493Z,7.50
2018-01-06T13:26:22.556Z,7.50
2018-01-06T13:28:49.557Z,7.40
2018-01-06T13:31:15.891Z,7.40
2018-01-06T13:33:42.183Z,7.50
2018-01-06T13:36:08.516Z,7.40
2018-01-06T13:38:34.783Z,7.40
2018-01-06T13:41:01.026Z,7.40
2018-01-06T13:43:27.370Z,7.40
2018-01-06T13:45:54.386Z,7.20
2018-01-06T13:48:20.665Z,7.20
2018-01-06T13:50:47.692Z,7.20
2018-01-06T13:53:13.955Z,7.20
2018-01-06T13:55:40.234Z,7.20
2018-01-06T13:58:06.511Z,7.20
2018-01-06T14:00:32.887Z,7.10
2018-01-06T14:02:59.218Z,7.10
2018-01-06T14:05:26.909Z,7.10
2018-01-06T14:07:53.544Z,7.00
2018-01-06T14:10:19.819Z,7.10
2018-01-06T14:12:46.091Z,7.00
2018-01-06T14:15:12.543Z,7.00
2018-01-06T14:17:38.975Z,7.00
2018-01-06T14:20:07.088Z,6.90
2018-01-06T14:22:34.359Z,6.90
2018-01-06T14:25:00.732Z,6.90
2018-01-06T14:27:28.251Z,6.90
2018-01-06T14:29:55.760Z,6.90
2018-01-06T14:32:23.065Z,6.80
2018-01-06T14:34:49.380Z,6.80
2018-01-06T14:37:15.790Z,6.80
2018-01-06T14:39:42.134Z,6.80
2018-01-06T14:42:08.444Z,6.70
2018-01-06T14:44:34.973Z,6.80
2018-01-06T14:47:01.281Z,6.80
2018-01-06T14:49:28.377Z,6.70
2018-01-06T14:51:54.683Z,6.70
2018-01-06T14:54:20.994Z,6.60
2018-01-06T14:56:48.109Z,6.60
2018-01-06T14:59:14.559Z,6.60
2018-01-06T15:01:41.599Z,6.60
2018-01-06T15:04:07.861Z,6.60
2018-01-06T15:06:34.881Z,6.50
2018-01-06T15:09:01.172Z,6.50
2018-01-06T15:11:27.500Z,6.40
2018-01-06T15:13:53.832Z,6.40
2018-01-06T15:16:20.219Z,6.40
2018-01-06T15:18:47.053Z,6.40
2018-01-06T15:21:14.083Z,6.40
2018-01-06T15:23:40.444Z,6.40
2018-01-06T15:26:06.754Z,6.40
2018-01-06T15:28:33.158Z,6.30
2018-01-06T15:30:59.410Z,6.30
2018-01-06T15:33:25.669Z,6.30
2018-01-06T15:35:52.653Z,6.30
2018-01-06T15:38:18.911Z,6.30
2018-01-06T15:40:45.174Z,6.30
2018-01-06T15:43:12.189Z,6.10
2018-01-06T15:45:38.501Z,6.10
2018-01-06T15:48:04.836Z,6.10
2018-01-06T15:50:32.178Z,6.10
2018-01-06T15:52:58.510Z,6.10
2018-01-06T15:55:24.810Z,6.00
2018-01-06T15:57:51.207Z,6.00
2018-01-06T16:00:18.563Z,6.00
2018-01-06T16:02:45.163Z,6.00
2018-01-06T16:05:12.175Z,6.10
2018-01-06T16:07:38.566Z,6.00
2018-01-06T16:10:04.844Z,6.10
2018-01-06T16:12:31.133Z,6.00
2018-01-06T16:14:57.376Z,6.10
2018-01-06T16:17:24.451Z,6.10
2018-01-06T16:19:50.702Z,6.10
2018-01-06T16:22:17.047Z,6.20
2018-01-06T16:24:43.275Z,6.20
2018-01-06T16:27:09.543Z,6.20
2018-01-06T16:29:36.584Z,6.10
2018-01-06T16:32:03.607Z,6.00
2018-01-06T16:34:29.889Z,6.00
2018-01-06T16:36:56.137Z,6.00
2018-01-06T16:39:22.878Z,6.00
2018-01-06T16:41:50.348Z,5.90
2018-01-06T16:44:16.790Z,5.90
2018-01-06T16:46:44.428Z,5.90
2018-01-06T16:49:10.801Z,5.90
2018-01-06T16:51:37.049Z,5.90
2018-01-06T16:54:03.293Z,5.90
2018-01-06T16:56:29.691Z,5.80
2018-01-06T16:58:55.997Z,5.80
2018-01-06T17:01:22.375Z,5.90
2018-01-06T17:03:48.861Z,5.90
2018-01-06T17:06:16.045Z,5.70
2018-01-06T17:08:42.504Z,5.70
2018-01-06T17:11:08.878Z,5.70
2018-01-06T17:13:35.204Z,5.70
2018-01-06T17:16:01.471Z,5.60
2018-01-06T17:18:34.549Z,5.60
2018-01-06T17:21:00.853Z,5.50
2018-01-06T17:23:27.785Z,5.40
2018-01-06T17:25:56.677Z,5.40
2018-01-06T17:28:25.463Z,5.40
2018-01-06T17:30:52.322Z,5.30
2018-01-06T17:33:18.889Z,5.30
2018-01-06T17:35:45.188Z,5.30
2018-01-06T17:38:12.281Z,5.30
2018-01-06T17:40:38.834Z,5.30
2018-01-06T17:43:05.132Z,5.30
2018-01-06T17:45:31.472Z,5.30
2018-01-06T17:47:59.008Z,5.20
2018-01-06T17:50:25.549Z,5.20
2018-01-06T17:52:51.889Z,5.30
2018-01-06T17:55:19.039Z,5.30
2018-01-06T17:57:45.408Z,5.20
2018-01-06T18:00:12.655Z,5.30
2018-01-06T18:02:39.012Z,5.30
2018-01-06T18:05:05.432Z,5.30
2018-01-06T18:07:31.744Z,5.30
2018-01-06T18:09:58.228Z,5.30
2018-01-06T18:12:24.669Z,5.30
2018-01-06T18:14:51.047Z,5.20
2018-01-06T18:17:17.535Z,5.20
2018-01-06T18:19:43.869Z,5.20
2018-01-06T18:22:10.301Z,5.20
2018-01-06T18:24:36.666Z,5.30
2018-01-06T18:27:03.115Z,5.30
2018-01-06T18:29:29.459Z,5.20
2018-01-06T18:31:56.466Z,5.20
2018-01-06T18:34:22.802Z,5.10
2018-01-06T18:36:49.132Z,5.10
2018-01-06T18:39:15.482Z,5.10
2018-01-06T18:41:41.818Z,5.10
2018-01-06T18:44:08.223Z,5.10
2018-01-06T18:46:34.560Z,5.00
2018-01-06T18:49:01.638Z,5.00
2018-01-06T18:51:27.927Z,5.00
2018-01-06T18:53:54.233Z,5.00
2018-01-06T18:56:20.561Z,4.90
2018-01-06T18:58:46.844Z,4.90
2018-01-06T19:01:13.139Z,4.80
2018-01-06T19:03:39.748Z,4.90
2018-01-06T19:06:06.204Z,4.80
2018-01-06T19:08:32.831Z,4.80
2018-01-06T19:11:00.522Z,4.80
2018-01-06T19:13:27.297Z,4.70
2018-01-06T19:15:54.660Z,4.60
2018-01-06T19:18:21.162Z,4.60
2018-01-06T19:20:47.546Z,4.60
2018-01-06T19:23:14.960Z,4.50
2018-01-06T19:25:41.427Z,4.50
2018-01-06T19:28:08.692Z,4.60
2018-01-06T19:30:35.909Z,4.50
2018-01-06T19:33:02.245Z,4.50
2018-01-06T19:35:29.291Z,4.60
2018-01-06T19:37:57.108Z,4.60
2018-01-06T19:40:23.746Z,4.60
2018-01-06T19:42:50.091Z,4.60
2018-01-06T19:45:17.191Z,4.60
2018-01-06T19:47:43.463Z,4.60
2018-01-06T19:50:09.902Z,4.60
2018-01-06T19:52:36.268Z,4.70
2018-01-06T19:55:03.833Z,4.80
2018-01-06T19:57:30.222Z,4.80
2018-01-06T19:59:57.335Z,4.80
2018-01-06T20:02:24.928Z,4.70
2018-01-06T20:04:51.290Z,4.60
2018-01-06T20:07:17.730Z,4.70
2018-01-06T20:09:43.991Z,4.60
2018-01-06T20:12:11.579Z,4.60
2018-01-06T20:14:38.621Z,4.50
2018-01-06T20:17:04.926Z,4.50
2018-01-06T20:19:31.373Z,4.50
2018-01-06T20:21:58.516Z,4.50
2018-01-06T20:24:25.064Z,4.50
2018-01-06T20:26:52.358Z,4.60
2018-01-06T20:29:19.847Z,4.50
2018-01-06T20:31:46.412Z,4.60
2018-01-06T20:34:12.804Z,4.60
2018-01-06T20:36:39.465Z,4.70
2018-01-06T20:39:06.775Z,4.70
2018-01-06T20:41:33.027Z,4.70
2018-01-06T20:43:59.400Z,4.70
2018-01-06T20:46:26.048Z,4.70
2018-01-06T20:48:52.356Z,4.70
2018-01-06T20:51:18.765Z,4.80
2018-01-06T20:53:45.040Z,4.80
2018-01-06T20:56:11.326Z,4.70
2018-01-06T20:58:38.700Z,4.80
2018-01-06T21:01:05.049Z,4.70
2018-01-06T21:03:31.817Z,4.70
2018-01-06T21:05:59.977Z,4.70
2018-01-06T21:08:26.245Z,4.70
2018-01-06T21:10:52.598Z,4.60
2018-01-06T21:13:18.910Z,4.60
2018-01-06T21:15:45.487Z,4.60
2018-01-06T21:18:11.920Z,4.70
2018-01-06T21:20:38.190Z,4.70
2018-01-06T21:23:05.348Z,4.70
2018-01-06T21:25:32.172Z,4.70
2018-01-06T21:27:58.941Z,4.70
2018-01-06T21:30:25.282Z,4.70
2018-01-06T21:32:52.068Z,4.80
2018-01-06T21:35:18.379Z,4.70
2018-01-06T21:37:44.668Z,4.80
2018-01-06T21:40:10.961Z,4.80
2018-01-06T21:42:37.247Z,4.80
2018-01-06T21:45:03.553Z,4.70
2018-01-06T21:49:56.922Z,4.80
2018-01-06T21:52:23.193Z,4.80
2018-01-06T21:54:49.442Z,4.80
2018-01-06T21:57:15.709Z,4.80
2018-01-06T21:59:41.983Z,4.80
2018-01-06T22:02:08.286Z,4.80
2018-01-06T22:04:34.607Z,4.80
2018-01-06T22:07:00.873Z,4.80
2018-01-06T22:09:27.147Z,4.80
2018-01-06T22:11:54.221Z,4.70
2018-01-06T22:14:20.502Z,4.70
2018-01-06T22:16:46.808Z,4.80
2018-01-06T22:19:13.182Z,4.70
2018-01-06T22:21:39.534Z,4.70
2018-01-06T22:24:05.991Z,4.60
2018-01-06T22:26:33.074Z,4.70
2018-01-06T22:28:59.369Z,4.60
2018-01-06T22:31:25.723Z,4.70
2018-01-06T22:33:52.097Z,4.70
2018-01-06T22:36:19.219Z,4.60
2018-01-06T22:38:45.595Z,4.60
2018-01-06T22:41:12.676Z,4.60
2018-01-06T22:43:39.012Z,4.60
2018-01-06T22:46:05.356Z,4.60
2018-01-06T22:48:32.386Z,4.60
2018-01-06T22:50:58.809Z,4.60
2018-01-06T22:53:25.239Z,4.50
2018-01-06T22:55:51.506Z,4.50
2018-01-06T22:58:18.657Z,4.50
2018-01-06T23:00:48.619Z,4.50
2018-01-06T23:03:15.005Z,4.50
2018-01-06T23:05:42.115Z,4.40
2018-01-06T23:08:08.476Z,4.40
2018-01-06T23:10:35.550Z,4.40
2018-01-06T23:13:01.865Z,4.40
2018-01-06T23:15:28.267Z,4.40
2018-01-06T23:17:54.576Z,4.40
2018-01-06T23:20:20.900Z,4.40
2018-01-06T23:22:47.295Z,4.40
2018-01-06T23:25:13.602Z,4.40
2018-01-06T23:27:39.969Z,4.40
2018-01-06T23:30:06.240Z,4.30
2018-01-06T23:32:32.521Z,4.30
2018-01-06T23:34:58.853Z,4.30
2018-01-06T23:37:25.169Z,4.30
2018-01-06T23:39:52.204Z,4.30
2018-01-06T23:42:19.263Z,4.30
2018-01-06T23:44:46.291Z,4.30
2018-01-06T23:47:12.749Z,4.30
2018-01-06T23:49:39.753Z,4.30
2018-01-06T23:52:06.060Z,4.30
2018-01-06T23:54:32.337Z,4.30
2018-01-06T23:56:59.529Z,4.30
2018-01-06T23:59:25.823Z,4.30
